Time;durP1;ratioP1;P1;durP2;ratioP2;P2;SDS_P1;SDS_P2;PMS_P1;PMS_P2;Temp;Humidity;BMP_temperature;BMP_pressure;BME280_temperature;BME280_humidity;BME280_pressure;Samples;Min_cycle;Max_cycle;Signal;HPM_P1;HPM_P2
2021/10/22 00:00:56;;;;;;;3.45;1.27;;;10.40;72.80;;;;;;5056834;28;20037;-73
2021/10/22 00:03:22;;;;;;;4.93;1.05;;;10.40;72.70;;;;;;5061533;28;20498;-73
2021/10/22 00:05:49;;;;;;;2.78;1.10;;;10.30;72.80;;;;;;5063762;28;20024;-73
2021/10/22 00:08:15;;;;;;;2.55;1.33;;;10.30;72.80;;;;;;5069826;28;20017;-73
2021/10/22 00:10:41;;;;;;;3.90;1.55;;;10.30;72.70;;;;;;5058025;28;20017;-73
2021/10/22 00:13:08;;;;;;;3.50;1.42;;;10.30;72.90;;;;;;5037918;28;20075;-73
2021/10/22 00:15:34;;;;;;;6.38;1.60;;;10.30;73.00;;;;;;5057079;28;20025;-73
2021/10/22 00:17:59;;;;;;;4.28;1.50;;;10.30;73.00;;;;;;5069031;28;20111;-73
2021/10/22 00:20:25;;;;;;;3.38;1.40;;;10.30;73.10;;;;;;5049248;28;20025;-73
2021/10/22 00:22:51;;;;;;;4.35;1.70;;;10.30;73.20;;;;;;5060119;28;20036;-73
2021/10/22 00:25:16;;;;;;;3.55;1.40;;;10.30;73.20;;;;;;5064427;28;20503;-73
2021/10/22 00:27:42;;;;;;;4.07;1.70;;;10.20;74.00;;;;;;5057935;28;20405;-73
2021/10/22 00:30:08;;;;;;;3.92;1.85;;;10.20;73.20;;;;;;5070524;28;20473;-73
2021/10/22 00:32:34;;;;;;;3.25;1.50;;;10.10;73.30;;;;;;5071811;28;20032;-73
2021/10/22 00:35:00;;;;;;;4.55;1.65;;;10.10;73.60;;;;;;5071696;28;20473;-73
2021/10/22 00:37:25;;;;;;;5.32;1.75;;;10.10;73.60;;;;;;5054097;28;20036;-74
2021/10/22 00:39:52;;;;;;;3.85;1.65;;;10.10;73.60;;;;;;5038593;28;20017;-73
2021/10/22 00:42:18;;;;;;;3.33;1.55;;;10.10;73.50;;;;;;5076571;28;20087;-73
2021/10/22 00:44:47;;;;;;;5.13;1.52;;;10.00;73.90;;;;;;5065068;28;20052;-72
2021/10/22 00:47:12;;;;;;;4.05;1.70;;;10.00;73.80;;;;;;5061356;28;20027;-74
2021/10/22 00:49:38;;;;;;;5.22;1.60;;;10.00;73.80;;;;;;5071327;28;20377;-74
2021/10/22 00:52:05;;;;;;;2.90;1.40;;;9.90;73.90;;;;;;5055605;28;20017;-74
2021/10/22 00:54:31;;;;;;;4.65;1.50;;;9.90;73.60;;;;;;5072184;28;20021;-74
2021/10/22 00:56:56;;;;;;;4.43;1.52;;;9.90;73.90;;;;;;5071338;28;20555;-73
2021/10/22 00:59:22;;;;;;;4.95;2.13;;;9.90;74.80;;;;;;5067663;28;20103;-74
2021/10/22 01:01:48;;;;;;;5.00;1.80;;;9.90;73.80;;;;;;5069785;28;20028;-74
2021/10/22 01:04:14;;;;;;;3.42;1.60;;;9.80;74.00;;;;;;5054976;28;20446;-73
2021/10/22 01:06:41;;;;;;;5.50;1.80;;;9.80;74.20;;;;;;5057918;28;20060;-74
2021/10/22 01:09:09;;;;;;;4.72;2.03;;;9.80;74.30;;;;;;5059835;28;20029;-74
2021/10/22 01:11:35;;;;;;;4.28;1.98;;;9.80;74.30;;;;;;5065464;28;20039;-73
2021/10/22 01:14:04;;;;;;;3.83;1.80;;;9.80;74.40;;;;;;5070980;28;20021;-74
2021/10/22 01:16:30;;;;;;;5.57;1.90;;;9.80;74.30;;;;;;5071076;28;20032;-74
2021/10/22 01:18:56;;;;;;;4.07;1.70;;;9.80;74.50;;;;;;5071002;28;20385;-73
2021/10/22 01:21:22;;;;;;;3.08;1.55;;;9.70;74.30;;;;;;5059527;28;20108;-73
2021/10/22 01:23:48;;;;;;;3.60;1.90;;;9.70;74.60;;;;;;5069153;28;20416;-74
2021/10/22 01:26:14;;;;;;;3.15;1.70;;;9.70;74.50;;;;;;5077449;28;20774;-73
2021/10/22 01:28:41;;;;;;;5.57;1.50;;;9.60;74.20;;;;;;5057550;28;20039;-74
2021/10/22 01:31:06;;;;;;;3.47;1.63;;;9.60;74.70;;;;;;5054900;28;20712;-74
2021/10/22 01:33:32;;;;;;;4.22;1.85;;;9.60;74.80;;;;;;5071229;28;20100;-74
2021/10/22 01:35:58;;;;;;;5.20;1.75;;;9.60;74.80;;;;;;5070977;28;20078;-74
2021/10/22 01:38:25;;;;;;;5.78;1.83;;;9.60;74.80;;;;;;5070722;28;20115;-74
2021/10/22 01:40:55;;;;;;;4.30;1.70;;;9.60;74.70;;;;;;5073125;28;20036;-73
2021/10/22 01:43:28;;;;;;;3.38;1.73;;;9.50;74.50;;;;;;5040311;28;20712;-74
2021/10/22 01:45:54;;;;;;;4.18;1.90;;;9.50;74.70;;;;;;5067881;28;20028;-74
2021/10/22 01:48:20;;;;;;;4.07;1.85;;;9.40;74.70;;;;;;5070804;28;20029;-73
2021/10/22 01:50:45;;;;;;;5.20;1.90;;;9.40;74.80;;;;;;5064118;28;20498;-73
2021/10/22 01:53:16;;;;;;;5.35;2.05;;;9.40;74.90;;;;;;5061770;28;20388;-74
2021/10/22 01:55:43;;;;;;;4.47;1.92;;;9.40;75.00;;;;;;5070923;28;20029;-73
2021/10/22 01:58:08;;;;;;;4.20;1.80;;;9.40;75.10;;;;;;5072878;28;20016;-73
2021/10/22 02:00:35;;;;;;;5.88;2.10;;;9.40;75.90;;;;;;5062158;28;20375;-74
2021/10/22 02:03:00;;;;;;;2.90;1.77;;;9.40;75.10;;;;;;5070639;28;20032;-73
2021/10/22 02:05:26;;;;;;;6.15;2.50;;;9.40;75.20;;;;;;5070491;28;20037;-73
2021/10/22 02:07:52;;;;;;;4.82;2.50;;;9.40;75.00;;;;;;5063469;28;20032;-73
2021/10/22 02:10:18;;;;;;;5.80;2.53;;;9.50;75.20;;;;;;5074987;28;20100;-73
2021/10/22 02:12:43;;;;;;;4.93;2.30;;;9.40;75.20;;;;;;5075726;28;20029;-73
2021/10/22 02:15:09;;;;;;;5.10;2.80;;;9.40;75.20;;;;;;5074535;28;20054;-73
2021/10/22 02:17:35;;;;;;;3.90;2.47;;;9.30;75.20;;;;;;5074460;28;20128;-73
2021/10/22 02:20:03;;;;;;;4.13;2.30;;;9.30;76.20;;;;;;5055728;28;20051;-73
2021/10/22 02:22:28;;;;;;;4.15;2.30;;;9.30;75.50;;;;;;5041932;28;20036;-73
2021/10/22 02:24:54;;;;;;;6.15;2.53;;;9.40;75.70;;;;;;5085687;28;20019;-74
2021/10/22 02:27:20;;;;;;;5.63;2.65;;;9.40;75.50;;;;;;5063305;28;20029;-74
2021/10/22 02:29:46;;;;;;;6.57;2.65;;;9.40;75.70;;;;;;5063486;28;20481;-74
2021/10/22 02:32:11;;;;;;;4.75;2.30;;;9.30;75.30;;;;;;5060168;28;20093;-73
2021/10/22 02:34:37;;;;;;;4.45;2.25;;;9.30;75.60;;;;;;5074360;28;20151;-74
2021/10/22 02:37:03;;;;;;;5.25;2.55;;;9.30;75.60;;;;;;5074771;28;20170;-72
2021/10/22 02:39:33;;;;;;;5.95;1.92;;;9.30;75.30;;;;;;5061716;28;20025;-72
2021/10/22 02:41:59;;;;;;;5.22;2.53;;;9.30;75.50;;;;;;5071662;28;20037;-72
2021/10/22 02:44:25;;;;;;;5.13;2.10;;;9.30;75.40;;;;;;5074246;28;20033;-74
2021/10/22 02:46:51;;;;;;;5.57;1.88;;;9.30;75.30;;;;;;5073852;28;20024;-74
2021/10/22 02:49:16;;;;;;;4.78;1.83;;;9.20;75.30;;;;;;5058121;28;20052;-72
2021/10/22 02:51:42;;;;;;;4.38;1.75;;;9.20;76.60;;;;;;5052352;28;20474;-74
2021/10/22 02:54:08;;;;;;;5.15;1.52;;;9.30;75.60;;;;;;5074031;28;20025;-73
2021/10/22 02:56:33;;;;;;;5.45;1.52;;;9.30;75.60;;;;;;5073896;28;20020;-74
2021/10/22 02:58:59;;;;;;;3.13;1.48;;;9.20;75.20;;;;;;5055005;28;20105;-73
2021/10/22 03:01:25;;;;;;;3.88;1.67;;;9.20;75.50;;;;;;5058585;28;20112;-74
2021/10/22 03:03:50;;;;;;;5.93;1.60;;;9.20;76.00;;;;;;5058504;28;20029;-73
2021/10/22 03:06:16;;;;;;;3.70;1.60;;;9.20;75.80;;;;;;5073950;28;20047;-74
2021/10/22 03:08:42;;;;;;;3.50;1.70;;;9.30;76.00;;;;;;5073221;28;20032;-74
2021/10/22 03:11:07;;;;;;;4.50;1.60;;;9.30;75.70;;;;;;5073021;28;20033;-72
2021/10/22 03:13:33;;;;;;;5.70;1.55;;;9.40;75.40;;;;;;5055860;28;20024;-73
2021/10/22 03:15:58;;;;;;;3.83;1.50;;;9.30;75.80;;;;;;5057359;28;20025;-73
2021/10/22 03:18:24;;;;;;;2.97;1.48;;;9.40;75.30;;;;;;5061887;28;20025;-73
2021/10/22 03:20:50;;;;;;;3.72;1.35;;;9.30;75.10;;;;;;5069841;28;20526;-73
2021/10/22 03:23:15;;;;;;;2.42;1.27;;;9.20;75.30;;;;;;5073346;28;20445;-73
2021/10/22 03:25:41;;;;;;;2.63;1.25;;;9.10;75.40;;;;;;5086834;28;20016;-73
2021/10/22 03:28:06;;;;;;;3.90;1.50;;;9.10;76.80;;;;;;5073374;28;20028;-73
2021/10/22 03:30:34;;;;;;;3.80;1.45;;;9.10;75.60;;;;;;5060358;28;20393;-74
2021/10/22 03:33:00;;;;;;;3.72;1.33;;;9.10;76.00;;;;;;5061994;28;20033;-74
2021/10/22 03:35:26;;;;;;;5.07;1.50;;;9.10;75.90;;;;;;5044039;28;20528;-73
2021/10/22 03:37:53;;;;;;;3.47;1.40;;;9.10;76.10;;;;;;5073452;28;20041;-74
2021/10/22 03:40:19;;;;;;;5.18;1.63;;;9.00;76.00;;;;;;5073166;28;20080;-74
2021/10/22 03:42:44;;;;;;;4.47;1.60;;;8.90;75.70;;;;;;5058787;28;20114;-74
2021/10/22 03:45:10;;;;;;;2.70;1.42;;;8.90;75.80;;;;;;5071590;28;20550;-74
2021/10/22 03:47:36;;;;;;;2.97;1.58;;;8.90;75.90;;;;;;5049271;28;20029;-73
2021/10/22 03:50:02;;;;;;;3.95;1.58;;;8.90;75.90;;;;;;5062758;28;20074;-73
2021/10/22 03:52:28;;;;;;;3.90;1.55;;;8.80;76.30;;;;;;5073085;28;20145;-73
2021/10/22 03:54:54;;;;;;;3.97;1.52;;;8.80;76.20;;;;;;5057342;28;20051;-74
2021/10/22 03:57:19;;;;;;;3.05;1.55;;;8.90;76.30;;;;;;5072820;28;20039;-73
2021/10/22 03:59:46;;;;;;;4.10;1.63;;;8.80;76.30;;;;;;5047281;28;20444;-74
2021/10/22 04:02:11;;;;;;;3.75;1.60;;;8.80;76.40;;;;;;5065741;28;20040;-74
2021/10/22 04:04:37;;;;;;;3.58;1.50;;;8.80;76.00;;;;;;5059002;28;20036;-74
2021/10/22 04:07:03;;;;;;;6.18;1.55;;;8.70;76.20;;;;;;5073024;28;20024;-74
2021/10/22 04:09:33;;;;;;;2.60;1.25;;;8.70;76.40;;;;;;5073299;28;20023;-74
2021/10/22 04:11:59;;;;;;;3.20;1.30;;;8.70;76.40;;;;;;5072568;28;20580;-74
2021/10/22 04:14:24;;;;;;;4.60;1.60;;;8.70;76.50;;;;;;5072204;28;20115;-74
2021/10/22 04:16:50;;;;;;;4.53;1.40;;;8.70;76.40;;;;;;5072466;28;20029;-74
2021/10/22 04:19:16;;;;;;;2.72;1.48;;;8.70;76.60;;;;;;5056467;28;20029;-73
2021/10/22 04:21:43;;;;;;;3.58;1.27;;;8.60;76.50;;;;;;5058048;28;20379;-74
2021/10/22 04:24:08;;;;;;;2.90;1.30;;;8.60;76.60;;;;;;5075936;28;20012;-74
2021/10/22 04:26:34;;;;;;;3.38;1.50;;;8.60;76.80;;;;;;5078147;28;20519;-74
2021/10/22 04:29:00;;;;;;;3.30;1.30;;;8.60;77.50;;;;;;5071084;28;20081;-73
2021/10/22 04:31:25;;;;;;;4.43;1.27;;;8.60;76.80;;;;;;5056773;28;20550;-74
2021/10/22 04:33:51;;;;;;;3.25;1.33;;;8.60;77.40;;;;;;5039150;28;20025;-74
2021/10/22 04:36:17;;;;;;;2.90;1.20;;;8.60;76.60;;;;;;5060881;28;20032;-73
2021/10/22 04:41:28;;;;;;;3.75;1.45;;;8.50;76.60;;;;;;5066606;28;20429;-73
2021/10/22 04:43:54;;;;;;;3.45;1.45;;;8.50;76.90;;;;;;5060762;28;20021;-74
2021/10/22 04:46:20;;;;;;;3.85;1.50;;;8.40;76.90;;;;;;5056031;28;20020;-74
2021/10/22 04:48:46;;;;;;;2.13;1.38;;;8.40;76.90;;;;;;5057344;28;20104;-74
2021/10/22 04:51:13;;;;;;;4.70;1.55;;;8.40;77.10;;;;;;5070997;28;20044;-74
2021/10/22 04:53:38;;;;;;;3.83;1.63;;;8.40;77.10;;;;;;5072230;28;20062;-74
2021/10/22 04:56:04;;;;;;;1.92;1.20;;;8.40;77.20;;;;;;5076022;28;20541;-73
2021/10/22 04:58:30;;;;;;;2.90;1.20;;;8.40;77.00;;;;;;5066243;28;20024;-74
2021/10/22 05:00:56;;;;;;;3.65;1.48;;;8.40;76.90;;;;;;5071825;28;20035;-74
2021/10/22 05:03:22;;;;;;;4.45;1.80;;;8.40;77.10;;;;;;5060597;28;20071;-73
2021/10/22 05:05:47;;;;;;;4.10;1.40;;;8.40;77.30;;;;;;5060130;28;20127;-73
2021/10/22 05:08:14;;;;;;;2.88;1.33;;;8.40;77.20;;;;;;5060336;28;20021;-74
2021/10/22 05:10:40;;;;;;;3.38;1.40;;;8.40;77.30;;;;;;5057771;28;20028;-73
2021/10/22 05:13:06;;;;;;;3.47;1.25;;;8.40;77.40;;;;;;5071279;28;20031;-75
2021/10/22 05:15:31;;;;;;;4.10;1.40;;;8.40;77.30;;;;;;5056646;28;20100;-73
2021/10/22 05:17:57;;;;;;;4.47;1.30;;;8.40;77.40;;;;;;5060696;28;20481;-74
2021/10/22 05:20:23;;;;;;;3.92;1.45;;;8.40;77.40;;;;;;5059857;28;20032;-74
2021/10/22 05:22:48;;;;;;;2.35;1.42;;;8.40;77.20;;;;;;5037614;28;20064;-73
2021/10/22 05:25:17;;;;;;;4.32;1.50;;;8.30;77.20;;;;;;5083515;28;20031;-74
2021/10/22 05:27:43;;;;;;;4.18;1.40;;;8.30;77.40;;;;;;5049584;28;20520;-73
2021/10/22 05:30:09;;;;;;;3.20;1.50;;;8.30;77.50;;;;;;5043803;28;20054;-74
2021/10/22 05:32:35;;;;;;;3.22;1.60;;;8.30;77.60;;;;;;5064979;28;20035;-74
2021/10/22 05:35:01;;;;;;;2.92;1.67;;;8.20;77.60;;;;;;5071244;28;20016;-74
2021/10/22 05:37:26;;;;;;;2.83;1.27;;;8.30;77.70;;;;;;5052841;28;20082;-74
2021/10/22 05:39:52;;;;;;;3.53;1.52;;;8.20;77.50;;;;;;5071292;28;20017;-73
2021/10/22 05:42:18;;;;;;;4.05;1.60;;;8.20;77.50;;;;;;5071271;28;20041;-74
2021/10/22 05:44:44;;;;;;;4.30;1.55;;;8.20;77.60;;;;;;5064188;28;20474;-73
2021/10/22 05:47:12;;;;;;;3.50;1.75;;;8.20;77.80;;;;;;5061668;28;20529;-74
2021/10/22 05:49:37;;;;;;;4.10;2.00;;;8.20;78.20;;;;;;5071134;28;20040;-74
2021/10/22 05:52:03;;;;;;;3.28;1.48;;;8.30;78.20;;;;;;5055126;28;20482;-73
2021/10/22 05:54:29;;;;;;;2.63;1.58;;;8.20;77.70;;;;;;5058427;28;20035;-74
2021/10/22 05:56:54;;;;;;;2.40;1.67;;;8.20;77.80;;;;;;5059397;28;20021;-74
2021/10/22 05:59:20;;;;;;;3.65;1.50;;;8.20;77.80;;;;;;5059464;28;20035;-73
2021/10/22 06:01:46;;;;;;;5.68;2.03;;;8.20;78.00;;;;;;5058880;28;20036;-73
2021/10/22 06:04:12;;;;;;;4.13;1.80;;;8.20;78.20;;;;;;5054548;28;20049;-73
2021/10/22 06:06:38;;;;;;;3.50;1.75;;;8.30;78.10;;;;;;5071627;28;20036;-74
2021/10/22 06:09:03;;;;;;;5.53;1.73;;;8.30;78.60;;;;;;5060834;28;20024;-74
2021/10/22 06:11:29;;;;;;;3.28;1.80;;;8.20;77.60;;;;;;5063935;28;20041;-73
2021/10/22 06:13:55;;;;;;;3.15;1.98;;;8.10;77.40;;;;;;5074953;28;20024;-73
2021/10/22 06:16:21;;;;;;;5.85;2.28;;;8.10;78.30;;;;;;5052799;28;20059;-73
2021/10/22 06:18:51;;;;;;;4.28;2.15;;;8.20;78.40;;;;;;5053441;28;20468;-73
2021/10/22 06:21:29;;;;;;;4.32;2.05;;;8.10;78.00;;;;;;5059269;28;20033;-73
2021/10/22 06:24:02;;;;;;;2.83;1.83;;;8.00;77.30;;;;;;5072968;28;20409;-73
2021/10/22 06:26:34;;;;;;;6.05;2.10;;;7.90;77.60;;;;;;5077200;28;20025;-73
2021/10/22 06:29:04;;;;;;;4.25;2.25;;;7.90;77.90;;;;;;5070517;28;20028;-72
2021/10/22 06:31:30;;;;;;;4.60;2.42;;;7.80;78.30;;;;;;5070587;28;20021;-72
2021/10/22 06:33:57;;;;;;;6.53;2.35;;;7.90;78.50;;;;;;5054445;28;20083;-72
2021/10/22 06:36:23;;;;;;;5.15;1.92;;;7.90;78.30;;;;;;5067046;28;20033;-73
2021/10/22 06:38:49;;;;;;;3.00;2.08;;;7.90;78.40;;;;;;5069471;28;20052;-73
2021/10/22 06:41:15;;;;;;;9.32;2.53;;;7.90;78.40;;;;;;5069750;28;20072;-73
2021/10/22 06:43:42;;;;;;;3.85;2.00;;;7.90;78.20;;;;;;5070947;28;20611;-73
2021/10/22 06:46:08;;;;;;;3.03;1.80;;;7.90;78.30;;;;;;5073751;28;20021;-72
2021/10/22 06:48:35;;;;;;;5.70;2.20;;;8.00;78.30;;;;;;5074473;28;20405;-73
2021/10/22 06:51:02;;;;;;;3.08;1.90;;;8.00;78.30;;;;;;5073566;28;20028;-73
2021/10/22 06:53:27;;;;;;;4.72;1.98;;;8.10;78.70;;;;;;5073208;28;20025;-73
2021/10/22 06:55:53;;;;;;;5.25;1.80;;;8.10;78.20;;;;;;5073689;28;20512;-73
2021/10/22 06:58:19;;;;;;;4.82;2.00;;;8.10;77.90;;;;;;5075919;28;20036;-73
2021/10/22 07:00:49;;;;;;;4.95;2.10;;;8.10;78.30;;;;;;5076792;28;20025;-73
2021/10/22 07:03:19;;;;;;;6.50;2.10;;;8.20;78.30;;;;;;5044293;28;20041;-73
2021/10/22 07:08:11;;;;;;;5.25;2.00;;;8.60;79.30;;;;;;5073366;28;20042;-73
2021/10/22 07:10:37;;;;;;;4.88;2.10;;;8.80;78.90;;;;;;5071532;28;20070;-73
2021/10/22 07:13:03;;;;;;;6.57;2.20;;;9.00;78.40;;;;;;5081116;28;20035;-73
2021/10/22 07:15:30;;;;;;;3.88;2.50;;;9.20;77.60;;;;;;5074797;28;20021;-73
2021/10/22 07:17:56;;;;;;;3.30;2.10;;;9.30;77.00;;;;;;5047053;28;20078;-73
2021/10/22 07:20:23;;;;;;;6.03;2.60;;;9.40;77.20;;;;;;5061889;28;20497;-73
2021/10/22 07:22:51;;;;;;;6.70;2.50;;;9.70;76.90;;;;;;5061071;28;20493;-74
2021/10/22 07:25:18;;;;;;;6.07;2.40;;;9.80;75.70;;;;;;5087153;28;20030;-74
2021/10/22 07:27:44;;;;;;;6.32;2.17;;;9.80;74.80;;;;;;5074371;28;20078;-75
2021/10/22 07:30:10;;;;;;;5.30;2.38;;;9.90;75.20;;;;;;5073650;28;20370;-74
2021/10/22 07:32:36;;;;;;;4.63;2.50;;;10.10;75.60;;;;;;5049957;28;20033;-74
2021/10/22 07:35:04;;;;;;;4.60;2.25;;;10.40;75.30;;;;;;5063766;28;20400;-74
2021/10/22 07:37:29;;;;;;;5.55;2.65;;;10.60;74.60;;;;;;5073358;28;20024;-74
2021/10/22 07:39:55;;;;;;;4.65;2.42;;;10.70;74.00;;;;;;5039633;28;20040;-74
2021/10/22 07:42:24;;;;;;;5.50;2.58;;;11.00;73.70;;;;;;5073844;28;20043;-74
2021/10/22 07:44:51;;;;;;;4.28;2.22;;;11.20;73.40;;;;;;5073451;28;20021;-74
2021/10/22 07:47:17;;;;;;;5.07;2.60;;;11.40;72.20;;;;;;5073444;28;20020;-74
2021/10/22 07:49:47;;;;;;;7.05;2.60;;;11.60;71.90;;;;;;5073162;28;20031;-74
2021/10/22 07:52:14;;;;;;;6.82;3.00;;;11.80;72.00;;;;;;5072157;28;20136;-74
2021/10/22 07:54:40;;;;;;;6.60;2.80;;;12.00;71.10;;;;;;5059429;28;20014;-74
2021/10/22 07:57:06;;;;;;;5.45;2.80;;;12.30;71.90;;;;;;5065746;28;20081;-71
2021/10/22 07:59:31;;;;;;;5.68;2.80;;;12.30;69.20;;;;;;5068200;28;20026;-74
2021/10/22 08:01:57;;;;;;;6.13;2.97;;;12.30;69.30;;;;;;5069458;28;20036;-75
2021/10/22 08:04:22;;;;;;;7.07;3.10;;;12.40;70.80;;;;;;5068806;28;20020;-74
2021/10/22 08:06:48;;;;;;;7.00;3.28;;;12.50;70.00;;;;;;5068499;28;20503;-74
2021/10/22 08:09:14;;;;;;;7.07;3.15;;;12.60;68.80;;;;;;5068704;28;20032;-73
2021/10/22 08:11:39;;;;;;;6.95;3.25;;;12.60;69.70;;;;;;5068759;28;20036;-73
2021/10/22 08:14:05;;;;;;;7.78;2.95;;;12.70;69.00;;;;;;5069353;28;20020;-73
2021/10/22 08:16:31;;;;;;;5.30;3.10;;;12.80;69.00;;;;;;5068953;28;20374;-75
2021/10/22 08:18:57;;;;;;;5.10;3.10;;;12.90;68.90;;;;;;5050864;28;20531;-73
2021/10/22 08:21:34;;;;;;;5.80;2.80;;;13.20;69.20;;;;;;5069551;28;20108;-73
2021/10/22 08:23:59;;;;;;;5.88;2.88;;;13.50;68.80;;;;;;5069626;28;20017;-73
2021/10/22 08:26:25;;;;;;;6.25;2.80;;;13.70;68.20;;;;;;5068809;28;20158;-73
2021/10/22 08:28:51;;;;;;;8.60;3.03;;;13.90;67.60;;;;;;5049750;28;20500;-73
2021/10/22 08:31:17;;;;;;;5.65;3.03;;;14.10;67.00;;;;;;5067535;28;20548;-73
2021/10/22 08:33:42;;;;;;;5.93;3.08;;;14.20;66.70;;;;;;5069241;28;20033;-73
2021/10/22 08:36:11;;;;;;;9.60;3.15;;;14.40;66.70;;;;;;5049113;28;20032;-73
2021/10/22 08:38:37;;;;;;;6.57;3.00;;;14.70;66.40;;;;;;5069419;28;20033;-72
2021/10/22 08:41:09;;;;;;;6.47;3.42;;;14.90;66.10;;;;;;5068543;28;20047;-73
2021/10/22 08:43:35;;;;;;;7.80;3.05;;;15.10;65.90;;;;;;5068623;28;20505;-73
2021/10/22 08:46:02;;;;;;;6.93;3.10;;;15.40;65.20;;;;;;5051461;28;20044;-73
2021/10/22 08:48:28;;;;;;;6.05;3.00;;;15.50;64.80;;;;;;5050155;28;20041;-72
2021/10/22 08:50:56;;;;;;;5.18;3.22;;;15.80;64.90;;;;;;5067868;28;20051;-72
2021/10/22 08:53:22;;;;;;;8.25;3.13;;;16.00;63.80;;;;;;5067056;28;20028;-73
2021/10/22 08:55:48;;;;;;;6.90;3.03;;;16.30;63.70;;;;;;5068235;28;20039;-73
2021/10/22 08:58:18;;;;;;;6.93;2.80;;;16.50;63.10;;;;;;5069371;28;20029;-73
2021/10/22 09:00:44;;;;;;;8.23;2.90;;;16.70;63.00;;;;;;5069259;28;20017;-73
2021/10/22 09:03:15;;;;;;;7.22;2.85;;;16.90;62.40;;;;;;5067398;28;20036;-73
2021/10/22 09:06:02;;;;;;;4.20;2.17;;;17.00;62.10;;;;;;5067993;28;20032;-73
2021/10/22 09:08:38;;;;;;;3.58;2.05;;;17.30;63.70;;;;;;5067155;28;20032;-72
2021/10/22 09:11:05;;;;;;;3.83;2.08;;;17.40;62.20;;;;;;5068024;28;20052;-73
2021/10/22 09:13:34;;;;;;;6.53;2.20;;;17.60;60.80;;;;;;5067296;28;20024;-74
2021/10/22 09:16:20;;;;;;;5.13;1.85;;;17.80;61.10;;;;;;5049415;28;20020;-74
2021/10/22 09:18:46;;;;;;;3.58;1.70;;;17.90;60.20;;;;;;5067496;28;20078;-73
2021/10/22 09:21:13;;;;;;;4.50;1.88;;;18.10;59.90;;;;;;5067960;28;20032;-73
2021/10/22 09:23:41;;;;;;;2.25;1.70;;;18.20;60.00;;;;;;5068513;28;20028;-74
2021/10/22 09:26:23;;;;;;;4.63;2.08;;;18.40;58.80;;;;;;5069259;28;20017;-74
2021/10/22 09:28:50;;;;;;;3.93;1.83;;;18.40;60.70;;;;;;5069625;28;20028;-73
2021/10/22 09:31:20;;;;;;;4.88;1.90;;;18.60;58.30;;;;;;5069500;28;20074;-75
2021/10/22 09:33:54;;;;;;;3.92;1.70;;;18.80;57.70;;;;;;5071485;28;20043;-74
2021/10/22 09:36:41;;;;;;;4.28;1.80;;;18.70;57.90;;;;;;5040829;28;20025;-74
2021/10/22 09:39:09;;;;;;;3.95;1.80;;;18.70;58.40;;;;;;5059670;28;20085;-73
2021/10/22 09:41:51;;;;;;;3.97;1.70;;;19.00;58.90;;;;;;5064905;28;20051;-73
2021/10/22 09:44:25;;;;;;;3.95;1.70;;;19.10;58.30;;;;;;5070708;28;20025;-74
2021/10/22 09:47:12;;;;;;;5.65;1.80;;;19.40;57.10;;;;;;5069678;28;20025;-73
2021/10/22 09:49:52;;;;;;;3.90;1.80;;;19.60;55.30;;;;;;5056588;28;20051;-73
2021/10/22 09:52:19;;;;;;;4.38;1.65;;;19.80;55.80;;;;;;5070705;28;20029;-66
2021/10/22 09:54:46;;;;;;;5.28;1.80;;;19.90;55.90;;;;;;5071521;28;20020;-67
2021/10/22 09:57:15;;;;;;;2.42;1.40;;;20.10;54.90;;;;;;5063982;28;20024;-67
2021/10/22 09:59:42;;;;;;;4.03;1.73;;;20.10;56.00;;;;;;5066713;28;20445;-66
2021/10/22 10:02:09;;;;;;;3.33;1.65;;;20.20;54.30;;;;;;5069584;28;20067;-66
2021/10/22 10:04:36;;;;;;;3.35;1.55;;;20.40;55.30;;;;;;5070524;28;20020;-67
2021/10/22 10:07:06;;;;;;;6.18;1.67;;;20.50;54.30;;;;;;5070599;28;20023;-67
2021/10/22 10:09:32;;;;;;;3.83;1.70;;;20.60;54.20;;;;;;5071593;28;20032;-67
2021/10/22 10:12:02;;;;;;;2.88;1.45;;;20.80;54.00;;;;;;5070814;28;20151;-67
2021/10/22 10:14:31;;;;;;;4.60;1.83;;;20.90;54.20;;;;;;5071113;28;20029;-67
2021/10/22 10:16:58;;;;;;;4.85;1.65;;;21.00;51.90;;;;;;5070537;28;20427;-67
2021/10/22 10:19:29;;;;;;;3.50;1.42;;;21.20;54.30;;;;;;5057632;28;20107;-67
2021/10/22 10:22:02;;;;;;;4.85;1.95;;;21.50;52.40;;;;;;5075498;28;20497;-67
2021/10/22 10:24:49;;;;;;;4.43;1.60;;;21.70;53.20;;;;;;5083701;28;20028;-68
2021/10/22 10:27:17;;;;;;;3.30;1.35;;;21.90;54.60;;;;;;5074192;28;20056;-68
2021/10/22 10:29:52;;;;;;;4.25;1.50;;;22.00;53.00;;;;;;5074507;28;20550;-68
2021/10/22 10:32:20;;;;;;;4.47;1.60;;;22.00;51.00;;;;;;5074746;28;20008;-67
2021/10/22 10:34:59;;;;;;;3.35;1.38;;;22.10;51.80;;;;;;5074923;28;20028;-68
2021/10/22 10:37:36;;;;;;;4.07;1.60;;;22.10;51.60;;;;;;5059320;28;20024;-68
2021/10/22 10:40:12;;;;;;;3.72;1.40;;;22.50;52.90;;;;;;5074703;28;20123;-67
2021/10/22 10:42:49;;;;;;;3.55;1.63;;;23.00;50.00;;;;;;5059845;28;20075;-68
2021/10/22 10:45:24;;;;;;;4.38;1.83;;;23.10;51.00;;;;;;5073714;28;20032;-68
2021/10/22 10:48:02;;;;;;;3.38;1.50;;;23.60;49.70;;;;;;5074449;28;20040;-67
2021/10/22 10:50:58;;;;;;;3.88;1.40;;;23.80;49.90;;;;;;5056435;28;20048;-71
2021/10/22 10:53:38;;;;;;;2.67;1.13;;;24.30;49.10;;;;;;5074311;28;20025;-68
2021/10/22 10:56:20;;;;;;;3.53;1.42;;;24.50;47.40;;;;;;5072793;28;20029;-67
2021/10/22 10:58:47;;;;;;;1.88;1.00;;;24.40;47.20;;;;;;5062876;28;20020;-67
2021/10/22 11:01:24;;;;;;;5.82;1.30;;;24.90;46.40;;;;;;5083061;28;20028;-68
2021/10/22 11:03:51;;;;;;;2.70;1.10;;;25.60;46.20;;;;;;5050023;28;20028;-68
2021/10/22 11:06:44;;;;;;;3.28;1.02;;;26.10;42.10;;;;;;5073862;28;20025;-68
2021/10/22 11:09:15;;;;;;;3.17;1.08;;;26.50;45.10;;;;;;5073876;28;20029;-66
2021/10/22 11:11:41;;;;;;;3.30;1.10;;;26.90;43.30;;;;;;5056210;28;20052;-68
2021/10/22 11:14:08;;;;;;;2.30;0.88;;;27.00;41.00;;;;;;5073501;28;20087;-67
2021/10/22 11:19:17;;;;;;;3.40;0.70;;;26.60;40.80;;;;;;5076939;28;20028;-67
2021/10/22 11:21:48;;;;;;;4.20;0.90;;;25.90;38.60;;;;;;5076307;28;20101;-66
2021/10/22 11:24:24;;;;;;;2.95;0.75;;;24.70;40.40;;;;;;5084439;28;20024;-66
2021/10/22 11:27:10;;;;;;;3.17;0.70;;;25.80;42.70;;;;;;5069173;28;20085;-65
2021/10/22 11:29:42;;;;;;;4.97;0.73;;;26.60;40.50;;;;;;5075129;28;20441;-66
2021/10/22 11:32:13;;;;;;;3.22;0.75;;;26.20;37.50;;;;;;5069592;28;20119;-66
2021/10/22 11:34:41;;;;;;;2.15;0.65;;;26.10;38.50;;;;;;5083679;28;20036;-66
2021/10/22 11:37:11;;;;;;;1.73;0.50;;;26.20;36.60;;;;;;5076031;28;20016;-67
2021/10/22 11:39:51;;;;;;;3.33;0.63;;;26.20;36.80;;;;;;5073828;28;20020;-64
2021/10/22 11:42:27;;;;;;;2.05;0.70;;;25.50;37.30;;;;;;5074022;28;20064;-66
2021/10/22 11:45:02;;;;;;;4.00;0.60;;;25.00;34.70;;;;;;5075443;28;20055;-67
2021/10/22 11:47:39;;;;;;;3.53;0.63;;;24.60;37.20;;;;;;5082570;28;20041;-65
2021/10/22 11:50:26;;;;;;;1.65;0.65;;;24.40;38.20;;;;;;5068340;28;20021;-65
2021/10/22 11:52:54;;;;;;;2.50;0.52;;;24.20;38.50;;;;;;5087004;28;20085;-66
2021/10/22 11:55:27;;;;;;;1.80;0.50;;;24.10;37.40;;;;;;5057222;28;20035;-66
2021/10/22 11:57:55;;;;;;;2.33;0.70;;;24.10;37.50;;;;;;5080333;28;20036;-65
2021/10/22 12:00:25;;;;;;;2.10;0.50;;;23.90;37.20;;;;;;5075800;28;20024;-65
2021/10/22 12:02:52;;;;;;;2.58;0.50;;;23.60;36.40;;;;;;5078131;28;20063;-65
2021/10/22 12:05:18;;;;;;;2.53;0.70;;;23.00;37.70;;;;;;5084189;28;20021;-66
2021/10/22 12:07:47;;;;;;;3.15;0.85;;;22.50;38.00;;;;;;5075196;28;20043;-65
2021/10/22 12:10:15;;;;;;;4.72;1.08;;;22.20;39.50;;;;;;5083546;28;20431;-66
2021/10/22 12:12:47;;;;;;;2.40;0.60;;;22.30;40.00;;;;;;5076736;28;20036;-66
2021/10/22 12:15:27;;;;;;;1.92;0.57;;;22.80;41.40;;;;;;5078307;28;20036;-66
2021/10/22 12:17:54;;;;;;;2.67;0.57;;;23.10;39.70;;;;;;5073469;28;20048;-65
2021/10/22 12:20:20;;;;;;;3.92;0.75;;;23.00;39.30;;;;;;5061680;28;20497;-65
2021/10/22 12:22:54;;;;;;;2.67;0.60;;;22.90;38.40;;;;;;5064170;28;20032;-65
2021/10/22 12:25:21;;;;;;;1.50;0.52;;;22.40;37.90;;;;;;5080984;28;20038;-66
2021/10/22 12:27:52;;;;;;;2.60;0.70;;;21.80;38.60;;;;;;5070452;28;20046;-65
2021/10/22 12:30:23;;;;;;;3.35;0.70;;;21.30;40.20;;;;;;5075192;28;20501;-65
2021/10/22 12:32:51;;;;;;;3.22;0.70;;;20.80;41.50;;;;;;5053733;28;20041;-66
2021/10/22 12:35:35;;;;;;;4.50;1.10;;;20.40;42.00;;;;;;5079884;28;20035;-65
2021/10/22 12:38:12;;;;;;;4.45;0.90;;;19.90;43.50;;;;;;5073382;28;20653;-64
2021/10/22 12:40:51;;;;;;;3.70;0.98;;;19.50;44.70;;;;;;5083604;28;20040;-65
2021/10/22 12:43:29;;;;;;;3.50;1.20;;;19.20;45.80;;;;;;5071520;28;20115;-65
2021/10/22 12:46:06;;;;;;;2.88;1.13;;;18.90;46.90;;;;;;5061123;28;20028;-65
2021/10/22 12:48:45;;;;;;;3.47;1.10;;;18.70;47.60;;;;;;5056337;28;20029;-66
2021/10/22 12:51:14;;;;;;;5.43;1.00;;;18.60;48.40;;;;;;5073944;28;20020;-65
2021/10/22 12:53:43;;;;;;;3.60;1.02;;;18.50;48.60;;;;;;5085203;28;20024;-66
2021/10/22 12:56:30;;;;;;;3.58;1.05;;;18.40;49.40;;;;;;5070081;28;20028;-65
2021/10/22 12:59:03;;;;;;;4.20;1.00;;;18.30;49.40;;;;;;5063128;28;20031;-65
2021/10/22 13:01:40;;;;;;;3.92;1.10;;;18.20;49.80;;;;;;5064930;28;20039;-65
2021/10/22 13:04:12;;;;;;;4.28;1.20;;;18.10;51.00;;;;;;5077628;28;20024;-65
2021/10/22 13:06:54;;;;;;;2.47;0.75;;;18.00;50.40;;;;;;5073706;28;20378;-64